Latest Weather Observations for Mount Isa

IDQ60801

Issued at 4:35 pm EST Saturday 19 April 2014 (issued every 30 minutes, with the page automatically refreshed every 10 minutes)

About weather observations | Map of weather stations | Latest weather observations for QLD | Other Formats
Station Details ID: 029127 Name: MOUNT ISA AERO Lat: -20.68 Lon: 139.49 Height: 340.3 m
Data from the previous 72 hours. | See also: Recent months at Mount Isa
Date/Time
EST
Temp
°C
App
Temp
°C
Dew
Point
Rel
Hum
%
Delta-T
°C
Wind Press
QNH
hPa
Press
MSL
hPa
Rain
since 9 am
mm
Dir
 
Spd
km/h
Gust
km/h
Spd
kts
Gust
kts
19/04:30pm 32.5 27.3 -6.0 8 17.2 SSE 13 20 7 11 1013.0 - 0.0
19/04:00pm 32.1 26.8 -3.9 9 16.6 SSE 15 20 8 11 1013.1 - 0.0
19/03:30pm 32.3 27.4 -3.8 9 16.7 SE 13 20 7 11 1013.2 - 0.0
19/03:00pm 33.0 28.9 -2.7 10 16.9 SSE 9 19 5 10 1013.3 1011.5 0.0
19/02:30pm 32.2 27.5 -2.0 11 16.3 S 13 20 7 11 1013.7 - 0.0
19/02:00pm 31.8 25.9 -2.2 11 16.1 SSW 19 28 10 15 1014.1 - 0.0
19/01:30pm 31.7 26.0 -1.1 12 15.8 ESE 19 26 10 14 1014.5 - 0.0
19/01:00pm 31.5 25.8 -3.7 10 16.2 SE 17 30 9 16 1015.0 - 0.0
19/12:30pm 31.2 26.6 -4.1 10 16.1 SE 11 20 6 11 1015.6 - 0.0
19/12:00pm 30.6 25.2 -4.4 10 15.8 SE 15 26 8 14 1016.1 1014.3 0.0
19/11:30am 29.6 23.8 -4.3 11 15.2 SSE 17 26 9 14 1016.8 - 0.0
19/11:00am 29.7 23.5 -3.4 11 15.1 SE 20 30 11 16 1017.4 - 0.0
19/10:30am 28.6 22.2 -4.6 11 14.7 SE 20 28 11 15 1017.6 - 0.0
19/10:00am 27.5 21.2 -3.7 12 13.9 ESE 20 32 11 17 1017.8 - 0.0
19/09:30am 26.9 20.7 -4.4 12 13.7 SSE 19 22 10 12 1018.0 - 0.0
19/09:00am 26.2 19.6 -3.3 14 13.1 SE 22 33 12 18 1017.8 1016.0 0.0
19/08:30am 25.3 19.7 -3.3 15 12.6 SE 17 26 9 14 1017.6 - 0.0
19/08:00am 24.0 18.4 -2.8 16 11.8 SSE 17 26 9 14 1017.4 - 0.0
19/07:30am 22.7 17.5 -2.8 18 11.1 SSE 15 26 8 14 1017.2 - 0.0
19/07:00am 22.0 16.4 -3.1 18 10.8 SSE 17 24 9 13 1017.0 - 0.0
19/06:30am 22.5 16.8 -3.7 17 11.2 SSE 17 26 9 14 1016.7 - 0.0
19/06:00am 22.5 16.4 -4.2 16 11.3 SSE 19 28 10 15 1016.4 1014.7 0.0
19/05:30am 22.9 16.7 -5.2 15 11.7 SSE 19 26 10 14 1016.1 - 0.0
19/05:00am 22.8 16.5 -3.9 16 11.4 SSE 20 30 11 16 1016.0 - 0.0
19/04:30am 23.1 16.4 -4.1 16 11.6 SSE 22 30 12 16 1015.8 - 0.0
19/04:00am 23.2 16.9 -4.4 15 11.7 S 20 28 11 15 1015.9 - 0.0
19/03:30am 23.2 16.8 -5.4 14 11.9 S 20 28 11 15 1016.0 - 0.0
19/03:00am 23.2 16.8 -5.4 14 11.9 SSE 20 32 11 17 1016.1 1014.3 0.0
19/02:30am 23.5 16.8 -4.6 15 11.9 SSE 22 33 12 18 1016.3 - 0.0
19/02:00am 24.0 17.5 -5.8 13 12.4 S 20 30 11 16 1016.5 - 0.0
19/01:30am 24.2 17.7 -5.8 13 12.5 SSE 20 28 11 15 1016.6 - 0.0
19/01:00am 23.7 17.9 -5.1 14 12.1 SSE 17 24 9 13 1016.9 - 0.0
19/12:30am 23.7 18.3 -4.6 15 12.0 S 15 17 8 9 1017.1 - 0.0
19/12:00am 24.6 18.3 -5.7 13 12.7 S 19 22 10 12 1017.1 1015.4 0.0
 
Date/Time
EST
Temp
°C
App
Temp
°C
Dew
Point
Rel
Hum
%
Delta-T
°C
Wind Press
QNH
hPa
Press
MSL
hPa
Rain
since 9 am
mm
Dir
 
Spd
km/h
Gust
km/h
Spd
kts
Gust
kts
18/11:30pm 24.7 18.3 -5.4 13 12.7 S 20 26 11 14 1017.2 - 0.0
18/11:00pm 25.5 19.0 -6.4 11 13.3 S 20 26 11 14 1017.2 - 0.0
18/10:30pm 26.0 18.4 -6.0 11 13.5 S 26 32 14 17 1017.0 - 0.0
18/10:00pm 26.4 19.8 -6.5 11 13.8 S 20 26 11 14 1017.0 - 0.0
18/09:30pm 26.4 19.8 -6.5 11 13.8 S 20 24 11 13 1016.9 - 0.0
18/09:00pm 26.8 20.9 -5.2 12 13.8 S 17 24 9 13 1016.8 1015.1 0.0
18/08:30pm 27.6 21.1 -5.5 11 14.3 S 20 26 11 14 1016.5 - 0.0
18/08:00pm 28.3 22.1 -3.4 12 14.3 S 20 28 11 15 1016.1 - 0.0
18/07:30pm 28.3 23.9 0.3 16 13.5 S 13 15 7 8 1015.6 - 0.0
18/07:00pm 29.1 24.7 0.1 15 14.0 S 13 15 7 8 1015.3 - 0.0
18/06:30pm 30.3 25.0 -0.7 13 14.9 S 17 19 9 10 1014.9 - 0.0
18/06:00pm 31.3 26.0 -0.8 12 15.5 S 17 26 9 14 1014.6 1012.8 0.0
18/05:30pm 32.0 26.9 -2.1 11 16.2 SSW 15 28 8 15 1014.4 - 0.0
18/05:00pm 32.8 28.6 -0.8 11 16.4 S 11 15 6 8 1014.3 - 0.0
18/04:30pm 32.9 27.5 -1.0 11 16.5 SSE 17 30 9 16 1014.0 - 0.0
18/04:00pm 33.1 28.6 -0.5 11 16.5 S 13 22 7 12 1014.0 - 0.0
18/03:30pm 33.3 28.6 0.9 12 16.3 S 15 17 8 9 1014.0 - 0.0
18/03:00pm 33.3 27.8 0.9 12 16.3 SE 19 32 10 17 1014.3 1012.5 0.0
18/02:30pm 32.6 27.7 1.7 14 15.7 SE 17 28 9 15 1014.6 - 0.0
18/02:00pm 32.5 27.8 0.6 13 15.9 SSE 15 26 8 14 1015.0 - 0.0
18/01:30pm 32.7 27.6 0.7 13 16.0 SSE 17 24 9 13 1015.3 - 0.0
18/01:00pm 32.3 26.7 0.0 12 15.9 SSE 19 26 10 14 1015.7 - 0.0
18/12:30pm 31.8 26.5 -0.4 12 15.7 SE 17 26 9 14 1016.3 - 0.0
18/12:00pm 31.7 25.7 -1.2 12 15.8 E 20 26 11 14 1016.8 1015.1 0.0
18/11:30am 30.4 24.9 -2.4 12 15.3 E 17 20 9 11 1017.1 - 0.0
18/11:00am 30.1 24.6 -2.3 12 15.1 ESE 17 24 9 13 1017.5 - 0.0
18/10:30am 29.6 23.0 -3.2 11 15.0 SE 22 30 12 16 1017.7 - 0.0
18/10:00am 28.5 21.5 -3.9 12 14.5 ESE 24 32 13 17 1017.8 - 0.0
18/09:30am 27.2 21.5 -4.0 12 13.8 ESE 17 28 9 15 1017.7 - 0.0
18/09:00am 26.8 21.2 -2.6 14 13.3 ESE 17 28 9 15 1017.5 1015.7 0.0
18/08:30am 25.6 20.4 -3.0 15 12.7 SE 15 24 8 13 1017.4 - 0.0
18/08:00am 24.7 19.6 -1.6 17 11.9 SE 15 20 8 11 1017.2 - 0.0
18/07:30am 23.6 18.1 -2.4 17 11.5 SE 17 28 9 15 1017.0 - 0.0
18/07:00am 23.1 17.8 -3.2 17 11.4 SE 15 24 8 13 1016.7 - 0.0
18/06:30am 23.7 18.0 -4.0 15 11.9 SE 17 26 9 14 1016.4 - 0.0
18/06:00am 23.7 18.0 -3.6 16 11.8 SE 17 28 9 15 1016.3 1014.6 0.0
18/05:30am 23.4 17.2 -3.4 16 11.6 SSE 20 30 11 16 1016.1 - 0.0
18/05:00am 24.2 17.4 -4.7 14 12.3 SSE 22 30 12 16 1015.9 - 0.0
18/04:30am 24.2 17.1 -4.2 15 12.2 SSE 24 32 13 17 1015.7 - 0.0
18/04:00am 24.3 16.8 -4.4 14 12.3 SSE 26 33 14 18 1015.7 - 0.0
18/03:30am 24.1 16.8 -2.5 17 11.8 SSE 26 35 14 19 1015.9 - 0.0
18/03:00am 24.3 18.2 -2.1 17 11.8 SSE 20 30 11 16 1015.9 1014.1 0.0
18/02:30am 24.7 18.7 -1.5 17 11.9 SSE 20 26 11 14 1016.0 - 0.0
18/02:00am 24.9 20.0 -0.2 19 11.7 SSE 15 20 8 11 1016.2 - 0.0
18/01:30am 25.2 19.4 -0.4 18 11.9 SSE 20 28 11 15 1016.4 - 0.0
18/01:00am 25.5 19.4 0.3 19 11.9 SSE 22 30 12 16 1016.7 - 0.0
18/12:30am 26.1 20.1 0.8 19 12.1 SSE 22 32 12 17 1016.9 - 0.0
18/12:00am 26.3 20.4 1.6 20 12.0 S 22 28 12 15 1016.9 1015.2 0.0
 
Date/Time
EST
Temp
°C
App
Temp
°C
Dew
Point
Rel
Hum
%
Delta-T
°C
Wind Press
QNH
hPa
Press
MSL
hPa
Rain
since 9 am
mm
Dir
 
Spd
km/h
Gust
km/h
Spd
kts
Gust
kts
17/11:30pm 26.8 21.3 1.9 20 12.2 S 20 28 11 15 1016.9 - 0.0
17/11:00pm 27.4 22.1 1.7 19 12.6 SSE 19 28 10 15 1016.9 - 0.0
17/10:30pm 27.6 22.2 2.5 20 12.5 SSE 20 32 11 17 1016.9 - 0.0
17/10:00pm 28.2 22.8 2.3 19 12.9 SSE 20 32 11 17 1016.8 - 0.0
17/09:30pm 28.2 23.2 3.4 20 12.6 S 19 24 10 13 1016.5 - 0.0
17/09:00pm 28.2 23.4 4.4 22 12.3 S 19 24 10 13 1016.3 1014.6 0.0
17/08:30pm 28.4 24.1 5.4 23 12.1 S 17 19 9 10 1015.9 - 0.0
17/08:00pm 29.0 25.0 5.0 21 12.6 S 15 19 8 10 1015.6 - 0.0
17/07:30pm 29.1 26.1 6.1 23 12.3 S 11 13 6 7 1015.1 - 0.0
17/07:00pm 30.3 26.4 5.3 20 13.3 S 15 19 8 10 1014.7 - 0.0
17/06:30pm 31.3 26.8 4.0 17 14.3 S 17 19 9 10 1014.3 - 0.0
17/06:00pm 32.2 27.9 3.4 16 15.0 S 15 22 8 12 1013.8 1012.1 0.0
17/05:30pm 32.9 29.2 4.6 17 15.1 S 13 20 7 11 1013.7 - 0.0
17/05:00pm 33.2 28.4 4.9 17 15.2 S 19 28 10 15 1013.4 - 0.0
17/04:30pm 33.6 29.9 4.4 16 15.6 S 13 26 7 14 1013.4 - 0.0
17/04:00pm 33.4 29.0 5.0 17 15.3 SE 17 26 9 14 1013.5 - 0.0
17/03:30pm 33.7 30.3 5.9 17 15.2 SE 13 22 7 12 1013.7 - 0.0
17/03:00pm 33.8 29.6 5.8 17 15.3 ESE 17 33 9 18 1014.0 1012.3 0.0
17/02:30pm 33.3 28.9 4.7 16 15.3 E 17 22 9 12 1014.3 - 0.0
17/02:00pm 33.4 28.8 5.6 17 15.1 SSE 19 28 10 15 1014.7 - 0.0
17/01:30pm 33.1 29.4 6.3 19 14.7 E 15 26 8 14 1015.0 - 0.0
17/01:00pm 32.7 29.4 6.5 19 14.4 SE 13 22 7 12 1015.6 - 0.0
17/12:30pm 32.3 28.7 6.6 20 14.1 ESE 15 30 8 16 1016.1 - 0.0
17/12:00pm 31.4 27.0 6.7 21 13.5 ESE 19 30 10 16 1016.6 1014.9 0.0
17/11:30am 30.6 25.1 6.1 21 13.2 ESE 24 32 13 17 1017.1 - 0.0
17/11:00am 30.4 25.1 6.7 22 12.9 ESE 24 33 13 18 1017.5 - 0.0
17/10:30am 29.2 24.0 5.4 22 12.6 ESE 22 37 12 20 1017.8 - 0.0
17/10:00am 28.6 23.0 5.2 22 12.3 ESE 24 35 13 19 1017.9 - 0.0
17/09:30am 27.1 21.7 4.6 23 11.6 SE 22 30 12 16 1017.8 - 0.0
17/09:00am 26.4 22.8 5.2 25 11.0 SSE 13 17 7 9 1017.6 1015.8 0.0
17/08:30am 25.6 22.5 5.6 27 10.4 ESE 11 22 6 12 1017.4 - 0.0
17/08:00am 24.7 19.8 5.2 28 10.0 SSE 20 32 11 17 1017.0 - 0.0
17/07:30am 24.0 19.2 5.5 30 9.5 SSE 20 30 11 16 1016.8 - 0.0
17/07:00am 23.5 19.3 5.6 31 9.2 SSE 17 28 9 15 1016.5 - 0.0
17/06:30am 23.8 20.4 5.8 31 9.3 SSE 13 15 7 8 1016.3 - 0.0
17/06:00am 24.4 19.7 5.3 29 9.8 SSE 19 26 10 14 1015.9 1014.1 0.0
17/05:30am 24.2 18.6 5.6 30 9.6 SSE 24 33 13 18 1015.8 - 0.0
17/05:00am 24.1 18.9 5.4 30 9.6 SSE 22 32 12 17 1015.6 - 0.0
17/04:30am 24.5 18.9 5.5 29 9.8 SSE 24 32 13 17 1015.3 - 0.0
17/04:00am 24.5 19.6 5.2 28 9.9 SSE 20 32 11 17 1015.3 - 0.0
17/03:30am 25.0 19.9 4.2 26 10.5 SE 20 32 11 17 1015.3 - 0.0
17/03:00am 25.1 19.3 4.4 26 10.5 SSE 24 33 13 18 1015.1 1013.3 0.0
17/02:30am 25.1 20.1 3.8 25 10.7 SE 19 28 10 15 1015.1 - 0.0
17/02:00am 25.4 19.8 3.7 24 10.9 SSE 22 32 12 17 1015.1 - 0.0
17/01:30am 25.6 20.4 3.7 24 11.0 SSE 20 28 11 15 1015.2 - 0.0
17/01:00am 26.0 20.8 3.5 23 11.3 SSE 20 28 11 15 1015.3 - 0.0
17/12:30am 26.3 20.7 3.7 23 11.4 SSE 22 28 12 15 1015.6 - 0.0
17/12:00am 27.0 21.0 3.1 21 12.0 SSE 24 32 13 17 1015.7 1013.9 0.0
 
Date/Time
EST
Temp
°C
App
Temp
°C
Dew
Point
Rel
Hum
%
Delta-T
°C
Wind Press
QNH
hPa
Press
MSL
hPa
Rain
since 9 am
mm
Dir
 
Spd
km/h
Gust
km/h
Spd
kts
Gust
kts
16/11:30pm 27.0 21.1 4.1 23 11.7 SSE 24 30 13 16 1015.6 - 0.0
16/11:00pm 27.6 22.0 3.6 21 12.2 SSE 22 30 12 16 1015.5 - 0.0
16/10:30pm 28.0 22.8 3.7 21 12.4 S 20 28 11 15 1015.4 - 0.0
16/10:00pm 28.1 23.2 4.2 21 12.3 S 19 26 10 14 1015.3 - 0.0
16/09:30pm 28.8 24.0 4.6 21 12.6 S 19 28 10 15 1015.1 - 0.0
16/09:10pm 28.9 24.3 5.5 22 12.4 S 19 28 10 15 1014.9 - 0.0
16/09:00pm 29.2 24.4 5.4 22 12.6 S 20 28 11 15 1014.7 1012.9 0.0
16/08:45pm 29.4 24.7 6.1 23 12.5 S 20 28 11 15 1014.6 - 0.0
16/08:30pm 29.4 25.4 6.7 24 12.3 S 17 20 9 11 1014.4 - 0.0
16/08:00pm 29.8 26.3 7.4 24 12.3 S 15 19 8 10 1013.8 - 0.0
16/07:30pm 30.2 26.4 7.6 24 12.5 S 17 19 9 10 1013.4 - 0.0
16/07:00pm 30.8 26.5 7.2 23 13.0 S 19 24 10 13 1013.1 - 0.0
16/06:30pm 31.4 27.1 7.1 22 13.4 S 19 28 10 15 1012.8 - 0.0
16/06:00pm 32.3 28.3 6.7 20 14.1 S 17 22 9 12 1012.4 1010.6 0.0
16/05:30pm 33.0 29.1 7.1 20 14.4 SSE 17 26 9 14 1012.3 - 0.0
16/05:00pm 33.6 29.1 7.0 19 14.8 S 20 32 11 17 1012.2 - 0.0

Other Formats:

Comma delimited format used in spreadsheet applications
http://www.bom.gov.au/fwo/IDQ60801/IDQ60801.94332.axf

JavaScript Object Notation format (JSON) in row-major order
http://www.bom.gov.au/fwo/IDQ60801/IDQ60801.94332.json